Time;durP1;ratioP1;P1;durP2;ratioP2;P2;SDS_P1;SDS_P2;PMS_P1;PMS_P2;Temp;Humidity;BMP_temperature;BMP_pressure;BME280_temperature;BME280_humidity;BME280_pressure;Samples;Min_cycle;Max_cycle;Signal;HPM_P1;HPM_P2
2022/01/18 00:00:50;;;;;;;8.07;4.78;;;7.80;73.60;;;;;;2370604;54;21009;-69
2022/01/18 00:03:16;;;;;;;8.48;5.03;;;7.80;73.60;;;;;;2512535;52;21489;-66
2022/01/18 00:05:44;;;;;;;8.45;4.18;;;7.80;73.70;;;;;;2370200;54;21782;-68
2022/01/18 00:08:10;;;;;;;9.43;4.93;;;7.80;73.70;;;;;;2370526;54;20938;-68
2022/01/18 00:10:36;;;;;;;8.75;4.70;;;7.80;73.60;;;;;;2370470;54;21044;-67
2022/01/18 00:13:11;;;;;;;8.57;4.87;;;7.80;73.60;;;;;;2371004;54;20946;-69
2022/01/18 00:18:17;;;;;;;8.55;4.43;;;7.80;73.60;;;;;;2390570;54;20958;-65
2022/01/18 00:20:55;;;;;;;7.57;4.30;;;7.80;73.60;;;;;;2616353;52;20997;-69
2022/01/18 00:23:35;;;;;;;7.22;4.05;;;7.80;73.60;;;;;;2622754;52;20953;-66
2022/01/18 00:26:13;;;;;;;8.57;4.57;;;7.80;73.60;;;;;;2594296;52;21014;-67
2022/01/18 00:28:40;;;;;;;7.35;4.53;;;7.80;73.60;;;;;;2367816;53;21452;-67
2022/01/18 00:34:03;;;;;;;6.20;3.50;;;7.80;73.70;;;;;;2370378;54;20993;-68
2022/01/18 00:36:51;;;;;;;7.93;4.15;;;7.80;73.60;;;;;;2371668;54;21025;-69
2022/01/18 00:39:17;;;;;;;8.68;4.45;;;7.80;73.60;;;;;;2408963;52;20930;-68
2022/01/18 00:41:44;;;;;;;8.85;4.78;;;7.80;73.50;;;;;;2416304;52;20941;-68
2022/01/18 00:44:11;;;;;;;10.30;5.20;;;7.80;73.40;;;;;;2475931;52;20938;-69
2022/01/18 00:46:39;;;;;;;10.77;5.60;;;7.80;73.40;;;;;;2369242;54;21030;-65
2022/01/18 00:49:06;;;;;;;8.63;5.00;;;7.80;73.30;;;;;;2622933;52;21451;-66
2022/01/18 00:51:36;;;;;;;8.98;5.40;;;7.80;73.30;;;;;;2370558;54;21045;-68
2022/01/18 00:54:03;;;;;;;7.85;4.90;;;7.70;73.20;;;;;;2370381;53;21004;-69
2022/01/18 00:56:31;;;;;;;8.80;5.25;;;7.70;73.20;;;;;;2360788;53;20956;-67
2022/01/18 00:58:59;;;;;;;9.45;5.53;;;7.70;73.20;;;;;;2361460;54;20933;-67
2022/01/18 01:01:29;;;;;;;8.40;4.97;;;7.70;73.20;;;;;;2376275;53;20954;-69
2022/01/18 01:04:00;;;;;;;7.25;4.40;;;7.70;73.20;;;;;;2347637;53;21514;-68
2022/01/18 01:06:26;;;;;;;6.85;4.55;;;7.70;73.30;;;;;;2370830;53;21064;-66
2022/01/18 01:08:52;;;;;;;8.00;4.35;;;7.70;73.40;;;;;;2370065;53;20947;-68
2022/01/18 01:11:20;;;;;;;8.10;4.20;;;7.70;73.40;;;;;;2370204;54;20957;-68
2022/01/18 01:13:48;;;;;;;7.00;3.87;;;7.70;73.50;;;;;;2370334;53;21017;-67
2022/01/18 01:16:50;;;;;;;7.10;4.10;;;7.60;73.40;;;;;;2375082;52;20981;-69
2022/01/18 01:32:52;;;;;;;8.98;4.97;;;7.60;72.90;;;;;;2370952;54;20952;-68
2022/01/18 01:35:47;;;;;;;7.10;3.90;;;7.50;72.90;;;;;;2372161;54;20914;-68
2022/01/18 01:44:02;;;;;;;7.37;4.28;;;7.50;73.30;;;;;;2371820;53;20980;-69
2022/01/18 01:46:28;;;;;;;8.75;5.25;;;7.50;73.30;;;;;;2372258;53;20949;-69
2022/01/18 01:48:58;;;;;;;8.80;4.85;;;7.50;73.40;;;;;;2372154;54;21030;-68
2022/01/18 01:51:31;;;;;;;7.97;4.37;;;7.50;73.50;;;;;;2373177;54;21716;-69
2022/01/18 01:54:04;;;;;;;8.63;4.82;;;7.50;73.60;;;;;;2362976;53;21021;-67
2022/01/18 01:56:33;;;;;;;7.37;4.45;;;7.50;73.50;;;;;;2359733;53;20921;-67
2022/01/18 01:58:59;;;;;;;8.30;4.80;;;7.50;73.60;;;;;;2373506;54;20989;-70
2022/01/18 02:01:27;;;;;;;8.75;4.82;;;7.50;73.60;;;;;;2625600;52;20930;-68
2022/01/18 02:03:55;;;;;;;7.80;4.43;;;7.40;73.50;;;;;;2350245;54;21409;-68
2022/01/18 02:06:25;;;;;;;7.70;4.18;;;7.50;73.60;;;;;;2343136;54;20927;-69
2022/01/18 02:08:54;;;;;;;9.73;5.35;;;7.50;73.70;;;;;;2336487;53;20990;-67
2022/01/18 02:11:20;;;;;;;10.07;5.20;;;7.50;73.60;;;;;;2365733;53;21900;-66
2022/01/18 02:13:50;;;;;;;8.80;5.00;;;7.50;73.60;;;;;;2344300;53;20993;-67
2022/01/18 02:21:46;;;;;;;8.68;5.75;;;7.50;73.60;;;;;;2342357;54;21771;-67
2022/01/18 02:24:12;;;;;;;8.88;4.57;;;7.50;73.60;;;;;;2340237;53;21066;-68
2022/01/18 02:26:41;;;;;;;7.75;4.22;;;7.50;73.40;;;;;;2343826;54;20970;-67
2022/01/18 02:29:10;;;;;;;8.02;4.28;;;7.50;73.60;;;;;;2342184;54;21054;-68
2022/01/18 02:31:36;;;;;;;8.18;4.07;;;7.50;73.70;;;;;;2341855;54;20927;-66
2022/01/18 02:34:08;;;;;;;7.43;4.07;;;7.50;73.80;;;;;;2587892;53;20930;-67
2022/01/18 02:36:34;;;;;;;6.03;3.60;;;7.50;73.80;;;;;;2360239;54;20965;-66
2022/01/18 02:39:03;;;;;;;7.75;4.05;;;7.50;73.80;;;;;;2369910;53;20905;-68
2022/01/18 02:41:31;;;;;;;8.07;4.43;;;7.50;73.90;;;;;;2362016;52;20931;-67
2022/01/18 02:44:02;;;;;;;8.13;5.18;;;7.50;73.90;;;;;;2334808;54;21006;-70
2022/01/18 02:46:31;;;;;;;7.18;4.05;;;7.50;73.90;;;;;;2342084;53;21022;-67
2022/01/18 02:48:58;;;;;;;7.00;4.07;;;7.50;73.80;;;;;;2342628;53;20934;-69
2022/01/18 02:51:24;;;;;;;7.15;3.90;;;7.50;73.90;;;;;;2376001;53;20979;-68
2022/01/18 02:54:00;;;;;;;6.10;3.30;;;7.50;73.90;;;;;;2352957;53;20939;-65
2022/01/18 02:56:28;;;;;;;6.50;3.58;;;7.50;73.80;;;;;;2340704;54;21378;-67
2022/01/18 02:59:04;;;;;;;6.32;3.25;;;7.50;73.80;;;;;;2587439;52;20951;-67
2022/01/18 03:04:16;;;;;;;5.80;3.00;;;7.50;73.70;;;;;;2586610;53;20923;-68
2022/01/18 03:06:42;;;;;;;6.30;3.45;;;7.50;73.60;;;;;;2340689;53;20951;-66
2022/01/18 03:09:09;;;;;;;7.05;3.67;;;7.50;73.70;;;;;;2341254;53;20959;-67
2022/01/18 03:11:35;;;;;;;6.65;3.72;;;7.50;73.90;;;;;;2341563;53;21137;-68
2022/01/18 03:14:02;;;;;;;6.20;3.30;;;7.50;73.90;;;;;;2342011;53;21066;-67
2022/01/18 03:16:28;;;;;;;5.53;3.10;;;7.50;74.00;;;;;;2346931;54;20977;-67
2022/01/18 03:18:54;;;;;;;7.68;3.58;;;7.50;74.00;;;;;;2369379;54;21478;-67
2022/01/18 03:21:21;;;;;;;7.35;3.70;;;7.50;74.10;;;;;;2361170;53;20926;-68
2022/01/18 03:23:52;;;;;;;5.78;3.22;;;7.50;74.00;;;;;;2363079;53;20977;-69
2022/01/18 03:26:18;;;;;;;5.00;3.05;;;7.60;74.10;;;;;;2333270;53;21015;-68
2022/01/18 03:28:46;;;;;;;5.10;3.00;;;7.50;73.90;;;;;;2341806;53;20953;-69
2022/01/18 03:31:13;;;;;;;5.15;2.95;;;7.50;73.90;;;;;;2341506;54;21036;-69
2022/01/18 03:33:40;;;;;;;5.32;3.37;;;7.50;73.90;;;;;;2345771;53;20998;-68
2022/01/18 03:36:06;;;;;;;6.43;3.72;;;7.60;74.00;;;;;;2338102;53;22032;-68
2022/01/18 03:38:32;;;;;;;5.90;3.45;;;7.60;74.00;;;;;;2571652;52;20963;-68
2022/01/18 03:41:03;;;;;;;6.70;3.90;;;7.60;73.90;;;;;;2365016;53;21048;-67
2022/01/18 03:43:30;;;;;;;7.75;3.40;;;7.60;73.80;;;;;;2347624;53;21428;-66
2022/01/18 03:46:01;;;;;;;7.57;4.25;;;7.60;73.80;;;;;;2364080;53;21031;-68
2022/01/18 03:48:36;;;;;;;7.03;3.70;;;7.60;73.80;;;;;;2365265;54;21007;-68
2022/01/18 03:51:04;;;;;;;7.10;3.62;;;7.60;73.80;;;;;;2366716;53;20951;-66
2022/01/18 03:53:30;;;;;;;7.12;4.18;;;7.60;73.90;;;;;;2365733;53;21007;-69
2022/01/18 03:55:56;;;;;;;7.97;4.45;;;7.60;74.30;;;;;;2488335;52;21479;-65
2022/01/18 03:58:23;;;;;;;6.60;4.15;;;7.60;73.90;;;;;;2365860;53;20987;-68
2022/01/18 04:00:50;;;;;;;6.15;3.60;;;7.60;74.00;;;;;;2365492;53;21613;-70
2022/01/18 04:03:17;;;;;;;6.82;3.83;;;7.60;74.00;;;;;;2355442;53;21031;-67
2022/01/18 04:05:43;;;;;;;8.13;3.58;;;7.60;74.00;;;;;;2558096;52;21019;-69
2022/01/18 04:08:10;;;;;;;7.22;3.90;;;7.60;74.00;;;;;;2365739;53;20996;-66
2022/01/18 04:10:36;;;;;;;7.05;3.95;;;7.60;74.10;;;;;;2588838;52;20951;-67
2022/01/18 04:13:02;;;;;;;7.72;4.05;;;7.60;74.20;;;;;;2365514;54;20963;-67
2022/01/18 04:15:30;;;;;;;6.90;3.95;;;7.60;74.20;;;;;;2617160;52;21015;-67
2022/01/18 04:18:15;;;;;;;7.57;4.12;;;7.60;74.20;;;;;;2347177;53;20924;-68
2022/01/18 04:30:30;;;;;;;6.62;3.40;;;7.60;74.10;;;;;;2353611;53;21394;-68
2022/01/18 04:32:56;;;;;;;6.78;4.15;;;7.70;74.10;;;;;;2356968;53;20936;-66
2022/01/18 04:35:23;;;;;;;6.80;3.80;;;7.70;74.20;;;;;;2365631;54;20976;-68
2022/01/18 04:37:49;;;;;;;6.95;3.83;;;7.70;74.20;;;;;;2365147;53;20939;-68
2022/01/18 04:40:18;;;;;;;9.15;4.90;;;7.70;74.20;;;;;;2365431;53;21899;-67
2022/01/18 04:50:33;;;;;;;8.52;4.43;;;7.70;73.70;;;;;;2375318;53;21000;-67
2022/01/18 04:52:59;;;;;;;8.88;5.03;;;7.70;73.80;;;;;;2367697;53;20964;-67
2022/01/18 04:55:31;;;;;;;8.85;4.80;;;7.60;73.80;;;;;;2366098;53;20967;-65
2022/01/18 04:57:57;;;;;;;9.32;4.43;;;7.70;73.80;;;;;;2367169;53;20996;-66
2022/01/18 05:00:24;;;;;;;7.30;4.12;;;7.60;73.70;;;;;;2351984;53;20997;-67
2022/01/18 05:02:50;;;;;;;8.05;4.95;;;7.70;73.70;;;;;;2342065;53;21005;-68
2022/01/18 05:05:24;;;;;;;8.82;4.28;;;7.60;73.60;;;;;;2367764;53;21086;-69
2022/01/18 05:07:53;;;;;;;8.27;4.75;;;7.70;73.70;;;;;;2367473;54;20960;-65
2022/01/18 05:10:21;;;;;;;7.78;4.50;;;7.70;73.70;;;;;;2365674;53;21760;-67
2022/01/18 05:12:50;;;;;;;8.60;5.40;;;7.50;73.50;;;;;;2396277;53;20936;-67
2022/01/18 05:21:06;;;;;;;8.02;4.28;;;7.60;73.60;;;;;;2351287;54;21478;-68
2022/01/18 05:23:32;;;;;;;7.22;4.35;;;7.60;73.40;;;;;;2416451;53;2246156;-68
2022/01/18 05:25:59;;;;;;;8.32;4.62;;;7.60;73.20;;;;;;2416077;53;21477;-68
2022/01/18 05:28:25;;;;;;;8.38;4.75;;;7.60;73.20;;;;;;2334409;53;20992;-68
2022/01/18 05:30:52;;;;;;;8.75;5.00;;;7.60;73.20;;;;;;2582485;53;22023;-69
2022/01/18 05:33:18;;;;;;;11.40;5.37;;;7.50;73.20;;;;;;2318161;54;21779;-67
2022/01/18 05:35:45;;;;;;;8.05;4.90;;;7.50;73.20;;;;;;2423725;52;20999;-68
2022/01/18 05:38:13;;;;;;;8.55;4.87;;;7.50;73.30;;;;;;2310530;54;20919;-69
2022/01/18 05:40:39;;;;;;;8.85;4.78;;;7.50;73.30;;;;;;2312675;54;20970;-67
2022/01/18 05:43:07;;;;;;;7.65;4.05;;;7.50;73.30;;;;;;2345741;54;21166;-68
2022/01/18 05:45:33;;;;;;;9.73;5.05;;;7.50;73.30;;;;;;2336618;53;20996;-68
2022/01/18 05:48:00;;;;;;;8.30;4.50;;;7.40;73.30;;;;;;2349089;53;20917;-68
2022/01/18 05:50:27;;;;;;;9.93;5.30;;;7.40;73.40;;;;;;2342812;54;21482;-67
2022/01/18 05:52:53;;;;;;;9.88;5.45;;;7.40;73.40;;;;;;2336730;53;20956;-69
2022/01/18 05:55:20;;;;;;;12.95;6.37;;;7.50;73.30;;;;;;2354741;53;20905;-67
2022/01/18 05:57:47;;;;;;;11.73;6.25;;;7.40;73.00;;;;;;2354769;53;20992;-67
2022/01/18 06:00:20;;;;;;;12.68;6.03;;;7.40;72.90;;;;;;2366246;53;20954;-66
2022/01/18 06:03:01;;;;;;;11.02;5.68;;;7.40;72.90;;;;;;2355593;54;20953;-66
2022/01/18 06:08:14;;;;;;;12.30;6.07;;;7.40;73.20;;;;;;2354351;53;21673;-68
2022/01/18 06:10:40;;;;;;;9.05;5.28;;;7.40;73.30;;;;;;2368859;53;20957;-67
2022/01/18 06:13:08;;;;;;;11.35;5.93;;;7.40;73.40;;;;;;2368793;53;20929;-65
2022/01/18 06:15:35;;;;;;;10.15;5.00;;;7.30;73.40;;;;;;2371813;52;20917;-68
2022/01/18 06:18:01;;;;;;;8.90;5.15;;;7.40;73.70;;;;;;2369049;53;20953;-66
2022/01/18 06:20:28;;;;;;;13.05;5.97;;;7.30;73.70;;;;;;2369831;53;20953;-68
2022/01/18 06:22:54;;;;;;;10.57;5.57;;;7.40;73.80;;;;;;2369651;54;20925;-67
2022/01/18 06:25:21;;;;;;;9.65;5.35;;;7.40;73.90;;;;;;2412289;52;21343;-67
2022/01/18 06:27:47;;;;;;;12.43;6.65;;;7.30;73.80;;;;;;2369758;54;20961;-68
2022/01/18 06:30:14;;;;;;;11.32;6.30;;;7.40;73.90;;;;;;2539864;52;22133;-67
2022/01/18 06:32:40;;;;;;;12.43;6.53;;;7.40;74.00;;;;;;2348633;53;20974;-66
2022/01/18 06:35:07;;;;;;;10.85;6.03;;;7.40;73.90;;;;;;2365285;54;20921;-69
2022/01/18 06:37:34;;;;;;;12.63;6.72;;;7.40;74.00;;;;;;2368818;53;20981;-67
2022/01/18 06:40:03;;;;;;;13.98;6.22;;;7.40;74.00;;;;;;2369573;54;20913;-66
2022/01/18 06:42:29;;;;;;;13.70;7.55;;;7.40;74.00;;;;;;2369481;53;21458;-68
2022/01/18 06:44:55;;;;;;;11.35;6.78;;;7.40;74.00;;;;;;2369673;53;21000;-69
2022/01/18 06:47:22;;;;;;;11.70;6.30;;;7.40;73.90;;;;;;2419770;52;20981;-68
2022/01/18 06:49:48;;;;;;;10.52;6.80;;;7.40;73.80;;;;;;2347135;53;21497;-70
2022/01/18 06:52:14;;;;;;;8.48;5.18;;;7.40;73.70;;;;;;2369446;54;20984;-69
2022/01/18 06:54:41;;;;;;;9.02;5.25;;;7.40;73.60;;;;;;2369448;54;20985;-69
2022/01/18 06:57:07;;;;;;;10.00;6.15;;;7.40;73.60;;;;;;2369528;54;20930;-67
2022/01/18 06:59:36;;;;;;;9.25;5.70;;;7.40;73.60;;;;;;2358247;53;21061;-66
2022/01/18 07:02:05;;;;;;;8.70;5.25;;;7.40;73.50;;;;;;2357879;53;20921;-68
2022/01/18 07:04:31;;;;;;;9.98;5.28;;;7.40;73.40;;;;;;2407695;52;21429;-69
2022/01/18 07:06:58;;;;;;;10.00;5.30;;;7.40;73.30;;;;;;2370138;54;20925;-67
2022/01/18 07:09:27;;;;;;;7.78;4.47;;;7.40;73.20;;;;;;2336924;54;20940;-70
2022/01/18 07:11:56;;;;;;;8.27;5.10;;;7.40;73.00;;;;;;2359410;54;21649;-67
2022/01/18 07:14:23;;;;;;;8.57;4.85;;;7.40;73.00;;;;;;2336098;54;20948;-67
2022/01/18 07:16:50;;;;;;;7.85;4.90;;;7.30;72.90;;;;;;2343346;54;20941;-69
2022/01/18 07:19:18;;;;;;;10.43;5.30;;;7.30;72.80;;;;;;2397579;53;20961;-67
2022/01/18 07:21:45;;;;;;;7.55;4.60;;;7.30;72.80;;;;;;2348810;53;21078;-69
2022/01/18 07:24:17;;;;;;;8.10;5.03;;;7.20;72.50;;;;;;2336751;55;20935;-67
2022/01/18 07:26:46;;;;;;;9.27;4.95;;;7.20;72.40;;;;;;2357340;54;21006;-68
2022/01/18 07:29:13;;;;;;;9.30;5.10;;;7.20;72.40;;;;;;2360521;54;20944;-69
2022/01/18 07:31:39;;;;;;;9.25;4.80;;;7.10;72.40;;;;;;2360060;54;21012;-67
2022/01/18 07:34:06;;;;;;;8.43;4.72;;;7.10;72.10;;;;;;2538806;53;20972;-69
2022/01/18 07:36:32;;;;;;;8.45;4.32;;;7.10;72.00;;;;;;2334388;54;20995;-67
2022/01/18 07:38:58;;;;;;;8.80;4.95;;;7.00;71.90;;;;;;2365212;54;21033;-67
2022/01/18 07:41:27;;;;;;;9.80;5.00;;;7.00;72.10;;;;;;2364659;54;21391;-67
2022/01/18 07:43:54;;;;;;;7.70;4.47;;;7.00;72.20;;;;;;2429842;52;21051;-65
2022/01/18 07:46:20;;;;;;;7.50;4.22;;;6.90;72.30;;;;;;2362223;54;21077;-67
2022/01/18 07:48:47;;;;;;;9.70;5.00;;;6.90;72.50;;;;;;2364810;54;20958;-67
2022/01/18 07:51:13;;;;;;;9.02;4.97;;;6.90;72.60;;;;;;2395127;52;20941;-68
2022/01/18 07:53:39;;;;;;;11.25;5.40;;;6.90;72.80;;;;;;2616001;52;20951;-67
2022/01/18 07:56:06;;;;;;;12.00;5.32;;;6.80;72.90;;;;;;2366316;54;21442;-67
2022/01/18 07:58:32;;;;;;;11.95;5.65;;;6.90;73.20;;;;;;2366409;54;21439;-68
2022/01/18 08:01:00;;;;;;;10.13;5.45;;;6.80;73.30;;;;;;2366993;54;21716;-67
2022/01/18 08:03:28;;;;;;;11.75;5.72;;;6.90;73.60;;;;;;2347453;54;20917;-68
2022/01/18 08:05:55;;;;;;;11.18;6.12;;;6.90;73.70;;;;;;2366532;54;20997;-67
2022/01/18 08:08:22;;;;;;;13.43;6.75;;;6.90;73.90;;;;;;2366586;54;21419;-66
2022/01/18 08:10:48;;;;;;;10.30;6.12;;;6.90;74.00;;;;;;2372821;52;20990;-66
2022/01/18 08:13:16;;;;;;;13.30;6.90;;;6.90;74.10;;;;;;2613270;52;20957;-68
2022/01/18 08:15:44;;;;;;;13.65;7.60;;;7.00;74.40;;;;;;2367113;54;21837;-69
2022/01/18 08:18:13;;;;;;;13.05;7.40;;;7.00;74.50;;;;;;2525704;52;20930;-67
2022/01/18 08:20:40;;;;;;;13.45;7.35;;;7.00;74.60;;;;;;2366801;54;21010;-65
2022/01/18 08:23:07;;;;;;;12.82;8.00;;;7.00;74.80;;;;;;2367476;54;20926;-69
2022/01/18 08:25:35;;;;;;;16.45;8.00;;;7.10;74.90;;;;;;2366619;54;20966;-66
2022/01/18 08:28:02;;;;;;;13.68;7.60;;;7.10;74.90;;;;;;2377219;52;20938;-68
2022/01/18 08:30:31;;;;;;;16.30;9.18;;;7.10;75.00;;;;;;2365979;54;20933;-66
2022/01/18 08:32:57;;;;;;;16.45;8.32;;;7.10;75.10;;;;;;2338272;54;21018;-68
2022/01/18 08:35:24;;;;;;;15.60;8.90;;;7.20;75.20;;;;;;2362510;54;21076;-66
2022/01/18 08:37:50;;;;;;;15.77;8.90;;;7.20;75.20;;;;;;2480762;52;21454;-66
2022/01/18 08:40:17;;;;;;;15.13;8.38;;;7.20;75.20;;;;;;2366816;54;21513;-69
2022/01/18 08:42:43;;;;;;;15.75;8.48;;;7.30;75.40;;;;;;2367776;54;21466;-67
2022/01/18 08:45:10;;;;;;;15.77;8.18;;;7.30;75.40;;;;;;2367141;54;21006;-67
2022/01/18 08:47:36;;;;;;;14.50;8.40;;;7.30;75.50;;;;;;2506895;52;20981;-65
2022/01/18 08:50:03;;;;;;;15.98;8.02;;;7.40;75.70;;;;;;2382389;52;20965;-67
2022/01/18 08:52:29;;;;;;;13.27;8.23;;;7.40;75.70;;;;;;2366924;54;20950;-66
2022/01/18 08:54:56;;;;;;;15.02;8.70;;;7.50;75.80;;;;;;2366638;54;21034;-68
2022/01/18 08:57:22;;;;;;;13.75;8.77;;;7.50;75.80;;;;;;2426976;52;20894;-68
2022/01/18 08:59:50;;;;;;;14.18;7.93;;;7.60;75.90;;;;;;2364689;54;21007;-67
2022/01/18 09:02:16;;;;;;;13.77;7.35;;;7.60;75.90;;;;;;2366081;54;20930;-69
2022/01/18 09:04:42;;;;;;;12.32;6.80;;;7.70;76.00;;;;;;2346846;53;21416;-68
2022/01/18 09:07:09;;;;;;;11.80;7.75;;;7.70;76.00;;;;;;2364691;53;21706;-66
2022/01/18 09:09:36;;;;;;;11.65;7.10;;;7.80;76.10;;;;;;2534706;52;21485;-68
2022/01/18 09:12:03;;;;;;;11.73;7.03;;;7.80;76.10;;;;;;2367209;54;21549;-66
2022/01/18 09:14:32;;;;;;;11.75;7.53;;;7.90;76.20;;;;;;2353338;54;20937;-69
2022/01/18 09:16:59;;;;;;;12.85;7.70;;;7.90;76.10;;;;;;2356523;54;20950;-68
2022/01/18 09:19:26;;;;;;;13.38;7.65;;;8.00;76.00;;;;;;2366224;54;20946;-65
2022/01/18 09:21:53;;;;;;;14.05;7.72;;;8.00;75.70;;;;;;2365241;54;21076;-69
2022/01/18 09:24:20;;;;;;;12.90;7.93;;;8.00;75.40;;;;;;2365361;54;20958;-68
2022/01/18 09:26:46;;;;;;;11.65;7.03;;;8.10;75.20;;;;;;2364813;54;20954;-68
2022/01/18 09:29:14;;;;;;;13.32;7.95;;;8.10;75.00;;;;;;2366906;54;20917;-68
2022/01/18 09:31:40;;;;;;;11.27;6.68;;;8.10;74.90;;;;;;2362383;54;21398;-66
2022/01/18 09:34:06;;;;;;;12.30;6.85;;;8.10;74.80;;;;;;2355834;54;20961;-69
2022/01/18 09:36:33;;;;;;;11.25;6.47;;;8.10;74.90;;;;;;2348430;54;20926;-67
2022/01/18 09:38:59;;;;;;;10.90;6.25;;;8.10;74.90;;;;;;2366668;54;20937;-69
2022/01/18 09:41:30;;;;;;;10.38;6.07;;;8.20;75.30;;;;;;2365271;54;21042;-66
2022/01/18 09:43:58;;;;;;;10.90;6.28;;;8.20;75.50;;;;;;2340255;54;21006;-69
2022/01/18 09:46:25;;;;;;;11.15;6.60;;;8.30;75.70;;;;;;2362873;54;20930;-70
2022/01/18 09:48:55;;;;;;;11.40;6.72;;;8.30;75.90;;;;;;2363468;54;20938;-67
2022/01/18 09:51:22;;;;;;;11.48;6.53;;;8.30;76.00;;;;;;2365291;53;20962;-68
2022/01/18 09:53:49;;;;;;;11.12;6.72;;;8.40;76.20;;;;;;2365016;54;21553;-69
2022/01/18 09:56:15;;;;;;;12.35;7.00;;;8.40;76.40;;;;;;2364338;54;20946;-67
2022/01/18 09:58:44;;;;;;;9.77;6.65;;;8.50;76.80;;;;;;2366072;54;21064;-67
2022/01/18 10:01:11;;;;;;;10.88;6.22;;;8.60;77.00;;;;;;2364610;54;20930;-66
2022/01/18 10:03:38;;;;;;;10.13;5.85;;;8.60;77.20;;;;;;2340898;54;20977;-67
2022/01/18 10:06:05;;;;;;;10.57;5.37;;;8.70;77.50;;;;;;2363924;54;20942;-69
2022/01/18 10:08:34;;;;;;;10.50;5.97;;;8.80;77.70;;;;;;2342226;54;20948;-67
2022/01/18 10:11:06;;;;;;;9.20;5.60;;;8.90;77.80;;;;;;2360189;53;20985;-68
2022/01/18 10:13:33;;;;;;;10.10;5.72;;;9.00;77.60;;;;;;2336034;54;20923;-67
2022/01/18 10:16:11;;;;;;;8.75;5.30;;;9.00;77.20;;;;;;2348734;54;20941;-69
2022/01/18 10:18:56;;;;;;;8.80;5.12;;;9.20;76.90;;;;;;2354398;54;21053;-68
2022/01/18 10:21:47;;;;;;;8.90;5.57;;;9.20;77.40;;;;;;2408946;52;20943;-70
2022/01/18 10:24:26;;;;;;;9.77;5.95;;;9.30;76.60;;;;;;2427146;52;21001;-67
2022/01/18 10:26:53;;;;;;;11.70;6.43;;;9.30;76.70;;;;;;2336476;53;21044;-67
2022/01/18 10:29:27;;;;;;;10.38;5.87;;;9.40;77.10;;;;;;2350199;53;21704;-67
2022/01/18 10:35:04;;;;;;;10.30;6.35;;;9.50;77.10;;;;;;2324970;54;21017;-69
2022/01/18 10:37:33;;;;;;;9.63;6.03;;;9.60;77.10;;;;;;2331744;53;20937;-69
2022/01/18 10:40:15;;;;;;;9.38;5.22;;;9.70;77.00;;;;;;2343512;53;21493;-66
2022/01/18 10:42:50;;;;;;;9.48;5.35;;;9.70;76.60;;;;;;2337080;54;20980;-70
2022/01/18 10:45:31;;;;;;;10.35;5.78;;;9.80;76.30;;;;;;2337054;53;20941;-68
2022/01/18 10:48:00;;;;;;;8.40;5.03;;;9.80;75.90;;;;;;2346552;54;21023;-66
2022/01/18 10:50:34;;;;;;;8.13;4.53;;;9.80;76.00;;;;;;2345336;53;22126;-68
2022/01/18 10:54:03;;;;;;;8.15;4.82;;;9.90;75.80;;;;;;2557166;53;21003;-69
2022/01/18 10:56:46;;;;;;;8.52;4.57;;;9.90;74.70;;;;;;2338358;54;20965;-69
2022/01/18 10:59:22;;;;;;;9.45;4.25;;;9.90;75.10;;;;;;2315224;54;21024;-68
2022/01/18 11:02:13;;;;;;;8.52;4.62;;;10.00;74.10;;;;;;2354599;54;21050;-68
2022/01/18 11:04:46;;;;;;;6.82;4.05;;;10.00;73.60;;;;;;2361456;53;20922;-69
2022/01/18 11:07:14;;;;;;;7.85;4.35;;;10.00;74.00;;;;;;2355891;54;20950;-68
2022/01/18 11:09:40;;;;;;;7.07;3.97;;;10.00;74.00;;;;;;2348516;54;20927;-66
2022/01/18 11:12:08;;;;;;;6.45;3.85;;;10.00;74.00;;;;;;2334311;53;21000;-68
2022/01/18 11:14:38;;;;;;;7.68;3.80;;;10.00;74.10;;;;;;2327021;53;20962;-67
2022/01/18 11:17:06;;;;;;;7.35;5.43;;;10.00;74.00;;;;;;2339941;53;20971;-67
2022/01/18 11:19:35;;;;;;;8.18;5.82;;;10.10;74.00;;;;;;2337034;53;21001;-70
2022/01/18 11:22:04;;;;;;;8.77;5.20;;;10.10;74.10;;;;;;2337780;53;21477;-66
2022/01/18 11:24:31;;;;;;;6.37;4.05;;;10.10;74.00;;;;;;2336868;54;20964;-67
2022/01/18 11:26:57;;;;;;;4.95;3.00;;;10.10;74.00;;;;;;2337214;54;20960;-67
2022/01/18 11:29:27;;;;;;;5.87;3.72;;;10.20;74.10;;;;;;2337151;54;21651;-70
2022/01/18 11:31:53;;;;;;;6.20;3.53;;;10.20;74.10;;;;;;2364837;53;21608;-67
2022/01/18 11:34:49;;;;;;;6.35;3.53;;;10.20;74.10;;;;;;2538322;52;21473;-68
2022/01/18 11:37:35;;;;;;;6.53;3.20;;;10.30;73.50;;;;;;2358124;53;20981;-67
2022/01/18 11:40:06;;;;;;;6.87;2.97;;;10.30;73.50;;;;;;2454900;53;21724;-70
2022/01/18 11:42:50;;;;;;;5.60;2.90;;;10.30;73.70;;;;;;2347843;53;20945;-68
2022/01/18 11:45:49;;;;;;;5.45;3.33;;;10.40;73.30;;;;;;2356503;53;20945;-69
2022/01/18 11:48:19;;;;;;;6.07;3.12;;;10.40;72.60;;;;;;2354278;53;20953;-67
2022/01/18 11:50:47;;;;;;;4.45;2.67;;;10.40;73.70;;;;;;2371455;53;20929;-68
2022/01/18 11:54:15;;;;;;;5.37;3.20;;;10.40;73.80;;;;;;2371208;54;21428;-70
2022/01/18 11:56:42;;;;;;;5.07;2.83;;;10.50;72.70;;;;;;2370744;53;20957;-69
2022/01/18 11:59:28;;;;;;;5.37;2.92;;;10.50;73.90;;;;;;2371191;53;20932;-69
2022/01/18 12:01:56;;;;;;;4.35;2.55;;;10.60;73.20;;;;;;2372538;53;21777;-68
2022/01/18 12:11:52;;;;;;;5.50;2.60;;;10.60;74.00;;;;;;2341603;53;21377;-69
2022/01/18 12:14:32;;;;;;;3.45;1.73;;;10.70;72.60;;;;;;2457210;52;21762;-69
2022/01/18 12:17:17;;;;;;;4.70;2.17;;;10.70;73.00;;;;;;2413841;52;20948;-69
2022/01/18 12:19:48;;;;;;;4.65;2.37;;;10.70;73.30;;;;;;2526870;52;20917;-69
2022/01/18 12:22:14;;;;;;;4.43;2.17;;;10.70;73.50;;;;;;2372687;53;21381;-68
2022/01/18 12:24:46;;;;;;;3.85;2.08;;;10.80;73.60;;;;;;2370708;53;20941;-67
2022/01/18 12:27:29;;;;;;;4.00;2.00;;;10.70;74.20;;;;;;2371465;53;21000;-70
2022/01/18 12:31:30;;;;;;;5.55;2.37;;;10.70;72.70;;;;;;2462853;52;21402;-69
2022/01/18 12:33:59;;;;;;;3.30;1.52;;;10.80;72.60;;;;;;2348449;53;20940;-67
2022/01/18 12:36:29;;;;;;;4.22;2.33;;;10.80;73.20;;;;;;2371477;54;21018;-68
2022/01/18 12:38:59;;;;;;;5.20;2.55;;;10.80;73.30;;;;;;2590231;52;20958;-67
2022/01/18 12:41:51;;;;;;;6.15;2.17;;;10.80;73.00;;;;;;2350609;53;21047;-67
2022/01/18 12:44:20;;;;;;;4.70;2.50;;;10.80;72.40;;;;;;2371549;53;20941;-67
2022/01/18 12:46:56;;;;;;;4.95;2.30;;;10.80;73.20;;;;;;2370205;53;21649;-69
2022/01/18 12:49:23;;;;;;;5.57;2.40;;;10.80;72.70;;;;;;2351984;53;20909;-69
2022/01/18 12:52:07;;;;;;;7.12;2.30;;;10.80;73.30;;;;;;2371392;53;20929;-69
2022/01/18 12:54:34;;;;;;;4.70;2.75;;;10.80;73.40;;;;;;2371920;53;20936;-67
2022/01/18 12:57:13;;;;;;;5.93;2.53;;;10.90;73.60;;;;;;2369399;53;20944;-68
2022/01/18 13:00:03;;;;;;;5.30;2.80;;;11.00;73.20;;;;;;2369218;53;20926;-69
2022/01/18 13:02:30;;;;;;;5.28;2.70;;;11.00;72.60;;;;;;2375253;53;20995;-67
2022/01/18 13:05:03;;;;;;;5.35;2.42;;;11.00;73.50;;;;;;2344366;53;20945;-69
2022/01/18 13:07:29;;;;;;;5.50;2.65;;;11.10;73.40;;;;;;2427096;52;21826;-67
2022/01/18 13:09:56;;;;;;;4.32;2.50;;;11.10;73.50;;;;;;2371660;54;21428;-68
2022/01/18 13:12:33;;;;;;;8.07;2.53;;;11.10;73.40;;;;;;2367213;53;21012;-70
2022/01/18 13:15:02;;;;;;;4.47;2.17;;;11.20;72.90;;;;;;2330898;54;21026;-68
2022/01/18 13:25:06;;;;;;;3.78;1.95;;;11.30;72.60;;;;;;2355419;53;20924;-67
2022/01/18 13:27:47;;;;;;;5.35;2.15;;;11.30;73.00;;;;;;2386384;52;21446;-67
2022/01/18 13:30:26;;;;;;;5.95;2.30;;;11.30;72.80;;;;;;2329978;54;21019;-68
2022/01/18 13:32:53;;;;;;;4.95;2.03;;;11.30;71.90;;;;;;2367509;53;21952;-67
2022/01/18 13:35:25;;;;;;;4.45;2.00;;;11.20;72.20;;;;;;2334063;54;20981;-66
2022/01/18 13:37:51;;;;;;;5.57;2.07;;;11.20;72.10;;;;;;2348752;54;20903;-66
2022/01/18 13:40:20;;;;;;;6.12;2.42;;;11.30;72.10;;;;;;2391216;52;20996;-69
2022/01/18 13:42:53;;;;;;;4.37;2.20;;;11.20;71.90;;;;;;2351756;53;20980;-70
2022/01/18 13:45:24;;;;;;;5.45;1.92;;;11.20;72.50;;;;;;2368987;53;20926;-69
2022/01/18 13:48:06;;;;;;;3.90;2.08;;;11.20;71.60;;;;;;2370908;54;20980;-67
2022/01/18 13:51:08;;;;;;;4.20;2.20;;;11.20;71.40;;;;;;2371316;54;21007;-71
2022/01/18 13:53:35;;;;;;;4.15;1.90;;;11.20;70.50;;;;;;2340814;53;21029;-67
2022/01/18 13:56:09;;;;;;;3.55;1.77;;;11.10;71.70;;;;;;2331087;54;20991;-68
2022/01/18 13:58:43;;;;;;;4.00;1.87;;;11.10;71.70;;;;;;2346057;54;20952;-67
2022/01/18 14:01:13;;;;;;;3.83;1.73;;;11.10;71.50;;;;;;2321348;54;20996;-67
2022/01/18 14:03:41;;;;;;;5.07;2.00;;;11.10;71.90;;;;;;2338980;53;20952;-69
2022/01/18 14:06:08;;;;;;;4.10;1.85;;;11.10;71.90;;;;;;2344863;54;20933;-66
2022/01/18 14:08:38;;;;;;;5.82;2.12;;;11.00;71.90;;;;;;2371449;53;20909;-66
2022/01/18 14:11:07;;;;;;;6.62;2.55;;;11.10;71.90;;;;;;2371675;54;20933;-67
2022/01/18 14:13:36;;;;;;;4.78;2.45;;;11.00;71.90;;;;;;2371414;53;20949;-69
2022/01/18 14:16:49;;;;;;;6.53;2.95;;;11.00;71.90;;;;;;2371568;54;20995;-69
2022/01/18 14:19:34;;;;;;;4.90;2.17;;;11.00;71.80;;;;;;2371781;54;20910;-69
2022/01/18 14:22:12;;;;;;;4.57;2.00;;;11.00;71.70;;;;;;2371606;54;21730;-68
2022/01/18 14:24:40;;;;;;;5.18;2.25;;;11.10;72.20;;;;;;2415569;52;20989;-69
2022/01/18 14:27:08;;;;;;;3.80;2.00;;;11.10;73.30;;;;;;2348112;53;21084;-69